sensor_id;sensor_type;location;lat;lon;timestamp;P1;durP1;ratioP1;P2;durP2;ratioP2
14665;SDS011;7420;53.574;10.040;2022-07-29T00:00:37;3.47;;;1.80;;
14665;SDS011;7420;53.574;10.040;2022-07-29T00:03:02;3.30;;;1.95;;
14665;SDS011;7420;53.574;10.040;2022-07-29T00:05:28;2.72;;;1.98;;
14665;SDS011;7420;53.574;10.040;2022-07-29T00:07:53;4.40;;;2.00;;
14665;SDS011;7420;53.574;10.040;2022-07-29T00:10:19;4.60;;;2.08;;
14665;SDS011;7420;53.574;10.040;2022-07-29T00:12:45;6.93;;;2.08;;
14665;SDS011;7420;53.574;10.040;2022-07-29T00:15:10;3.97;;;1.98;;
14665;SDS011;7420;53.574;10.040;2022-07-29T00:17:36;3.80;;;2.20;;
14665;SDS011;7420;53.574;10.040;2022-07-29T00:20:01;4.53;;;2.25;;
14665;SDS011;7420;53.574;10.040;2022-07-29T00:22:28;4.65;;;2.08;;
14665;SDS011;7420;53.574;10.040;2022-07-29T00:24:53;3.80;;;2.35;;
14665;SDS011;7420;53.574;10.040;2022-07-29T00:27:18;4.82;;;2.55;;
14665;SDS011;7420;53.574;10.040;2022-07-29T00:29:44;3.17;;;1.95;;
14665;SDS011;7420;53.574;10.040;2022-07-29T00:32:09;5.10;;;2.20;;
14665;SDS011;7420;53.574;10.040;2022-07-29T00:34:35;5.35;;;2.30;;
14665;SDS011;7420;53.574;10.040;2022-07-29T00:39:44;5.85;;;2.60;;
14665;SDS011;7420;53.574;10.040;2022-07-29T00:42:09;4.90;;;2.40;;
14665;SDS011;7420;53.574;10.040;2022-07-29T00:44:38;4.50;;;2.63;;
14665;SDS011;7420;53.574;10.040;2022-07-29T00:47:05;4.40;;;2.30;;
14665;SDS011;7420;53.574;10.040;2022-07-29T00:49:31;4.10;;;2.20;;
14665;SDS011;7420;53.574;10.040;2022-07-29T00:51:57;4.05;;;2.40;;
14665;SDS011;7420;53.574;10.040;2022-07-29T00:54:22;5.22;;;2.50;;
14665;SDS011;7420;53.574;10.040;2022-07-29T00:56:48;3.08;;;2.53;;
14665;SDS011;7420;53.574;10.040;2022-07-29T00:59:14;4.60;;;2.25;;
14665;SDS011;7420;53.574;10.040;2022-07-29T01:01:39;5.45;;;2.40;;
14665;SDS011;7420;53.574;10.040;2022-07-29T01:04:05;4.68;;;2.35;;
14665;SDS011;7420;53.574;10.040;2022-07-29T01:09:04;5.95;;;2.65;;
14665;SDS011;7420;53.574;10.040;2022-07-29T01:11:30;4.05;;;2.15;;
14665;SDS011;7420;53.574;10.040;2022-07-29T01:14:13;3.47;;;2.75;;
14665;SDS011;7420;53.574;10.040;2022-07-29T01:16:51;4.75;;;2.42;;
14665;SDS011;7420;53.574;10.040;2022-07-29T01:22:12;7.07;;;2.42;;
14665;SDS011;7420;53.574;10.040;2022-07-29T01:24:50;3.97;;;2.25;;
14665;SDS011;7420;53.574;10.040;2022-07-29T01:30:26;2.88;;;2.22;;
14665;SDS011;7420;53.574;10.040;2022-07-29T01:32:56;4.90;;;2.60;;
14665;SDS011;7420;53.574;10.040;2022-07-29T01:35:26;4.80;;;2.50;;
14665;SDS011;7420;53.574;10.040;2022-07-29T01:38:01;4.65;;;2.10;;
14665;SDS011;7420;53.574;10.040;2022-07-29T01:40:35;5.90;;;3.50;;
14665;SDS011;7420;53.574;10.040;2022-07-29T01:43:06;6.85;;;3.50;;
14665;SDS011;7420;53.574;10.040;2022-07-29T01:45:40;9.13;;;4.93;;
14665;SDS011;7420;53.574;10.040;2022-07-29T01:53:32;16.60;;;8.93;;
14665;SDS011;7420;53.574;10.040;2022-07-29T01:56:01;14.65;;;7.85;;
14665;SDS011;7420;53.574;10.040;2022-07-29T01:58:28;15.23;;;9.63;;
14665;SDS011;7420;53.574;10.040;2022-07-29T02:00:56;22.65;;;10.35;;
14665;SDS011;7420;53.574;10.040;2022-07-29T02:03:23;20.98;;;9.60;;
14665;SDS011;7420;53.574;10.040;2022-07-29T02:05:51;20.40;;;9.10;;
14665;SDS011;7420;53.574;10.040;2022-07-29T02:08:17;18.00;;;8.65;;
14665;SDS011;7420;53.574;10.040;2022-07-29T02:10:45;22.42;;;9.15;;
14665;SDS011;7420;53.574;10.040;2022-07-29T02:13:12;17.60;;;8.13;;
14665;SDS011;7420;53.574;10.040;2022-07-29T02:15:39;18.77;;;7.25;;
14665;SDS011;7420;53.574;10.040;2022-07-29T02:18:08;15.43;;;6.90;;
14665;SDS011;7420;53.574;10.040;2022-07-29T02:20:38;14.00;;;5.80;;
14665;SDS011;7420;53.574;10.040;2022-07-29T02:23:05;11.02;;;4.95;;
14665;SDS011;7420;53.574;10.040;2022-07-29T02:25:34;12.60;;;4.80;;
14665;SDS011;7420;53.574;10.040;2022-07-29T02:27:59;9.73;;;4.32;;
14665;SDS011;7420;53.574;10.040;2022-07-29T02:30:26;8.40;;;4.10;;
14665;SDS011;7420;53.574;10.040;2022-07-29T02:32:54;6.55;;;3.80;;
14665;SDS011;7420;53.574;10.040;2022-07-29T02:35:20;11.27;;;3.85;;
14665;SDS011;7420;53.574;10.040;2022-07-29T02:37:46;9.55;;;3.47;;
14665;SDS011;7420;53.574;10.040;2022-07-29T02:40:34;7.18;;;3.40;;
14665;SDS011;7420;53.574;10.040;2022-07-29T02:43:03;5.60;;;3.30;;
14665;SDS011;7420;53.574;10.040;2022-07-29T02:45:31;5.05;;;3.00;;
14665;SDS011;7420;53.574;10.040;2022-07-29T02:47:57;4.75;;;2.95;;
14665;SDS011;7420;53.574;10.040;2022-07-29T02:50:32;6.93;;;2.55;;
14665;SDS011;7420;53.574;10.040;2022-07-29T02:58:07;6.75;;;3.15;;
14665;SDS011;7420;53.574;10.040;2022-07-29T03:00:40;4.35;;;2.92;;
14665;SDS011;7420;53.574;10.040;2022-07-29T03:03:09;4.68;;;2.90;;
14665;SDS011;7420;53.574;10.040;2022-07-29T03:05:40;5.88;;;2.70;;
14665;SDS011;7420;53.574;10.040;2022-07-29T03:08:06;6.18;;;3.10;;
14665;SDS011;7420;53.574;10.040;2022-07-29T03:10:35;6.43;;;2.67;;
14665;SDS011;7420;53.574;10.040;2022-07-29T03:13:04;4.45;;;2.72;;
14665;SDS011;7420;53.574;10.040;2022-07-29T03:15:35;6.88;;;3.10;;
14665;SDS011;7420;53.574;10.040;2022-07-29T03:18:02;4.97;;;2.70;;
14665;SDS011;7420;53.574;10.040;2022-07-29T03:20:28;5.63;;;2.90;;
14665;SDS011;7420;53.574;10.040;2022-07-29T03:22:53;7.45;;;2.58;;
14665;SDS011;7420;53.574;10.040;2022-07-29T03:25:19;4.03;;;2.70;;
14665;SDS011;7420;53.574;10.040;2022-07-29T03:27:46;6.80;;;2.78;;
14665;SDS011;7420;53.574;10.040;2022-07-29T03:30:12;5.85;;;3.03;;
14665;SDS011;7420;53.574;10.040;2022-07-29T03:32:39;10.95;;;3.00;;
14665;SDS011;7420;53.574;10.040;2022-07-29T03:35:05;3.30;;;2.65;;
14665;SDS011;7420;53.574;10.040;2022-07-29T03:37:31;5.35;;;2.88;;
14665;SDS011;7420;53.574;10.040;2022-07-29T03:39:58;4.63;;;2.90;;
14665;SDS011;7420;53.574;10.040;2022-07-29T03:42:25;5.75;;;3.00;;
14665;SDS011;7420;53.574;10.040;2022-07-29T03:44:55;8.25;;;3.03;;
14665;SDS011;7420;53.574;10.040;2022-07-29T03:47:23;5.07;;;2.97;;
14665;SDS011;7420;53.574;10.040;2022-07-29T03:49:52;4.55;;;3.08;;
14665;SDS011;7420;53.574;10.040;2022-07-29T03:52:20;6.47;;;3.30;;
14665;SDS011;7420;53.574;10.040;2022-07-29T03:54:46;4.70;;;2.65;;
14665;SDS011;7420;53.574;10.040;2022-07-29T03:57:12;4.70;;;2.85;;
14665;SDS011;7420;53.574;10.040;2022-07-29T03:59:39;4.50;;;2.63;;
14665;SDS011;7420;53.574;10.040;2022-07-29T04:02:08;5.30;;;3.25;;
14665;SDS011;7420;53.574;10.040;2022-07-29T04:04:36;7.15;;;3.08;;
14665;SDS011;7420;53.574;10.040;2022-07-29T04:07:02;5.57;;;2.95;;
14665;SDS011;7420;53.574;10.040;2022-07-29T04:09:29;5.22;;;3.20;;
14665;SDS011;7420;53.574;10.040;2022-07-29T04:11:54;7.68;;;3.22;;
14665;SDS011;7420;53.574;10.040;2022-07-29T04:14:20;6.65;;;3.30;;
14665;SDS011;7420;53.574;10.040;2022-07-29T04:16:46;8.43;;;3.28;;
14665;SDS011;7420;53.574;10.040;2022-07-29T04:19:11;6.93;;;3.40;;
14665;SDS011;7420;53.574;10.040;2022-07-29T04:21:38;6.82;;;3.30;;
14665;SDS011;7420;53.574;10.040;2022-07-29T04:24:07;6.93;;;3.10;;
14665;SDS011;7420;53.574;10.040;2022-07-29T04:26:33;5.60;;;3.35;;
14665;SDS011;7420;53.574;10.040;2022-07-29T04:28:59;5.72;;;3.45;;
14665;SDS011;7420;53.574;10.040;2022-07-29T04:31:25;5.28;;;3.47;;
14665;SDS011;7420;53.574;10.040;2022-07-29T04:33:51;9.55;;;3.45;;
14665;SDS011;7420;53.574;10.040;2022-07-29T04:36:17;4.25;;;3.28;;
14665;SDS011;7420;53.574;10.040;2022-07-29T04:38:42;7.13;;;4.35;;
14665;SDS011;7420;53.574;10.040;2022-07-29T04:41:08;7.90;;;4.32;;
14665;SDS011;7420;53.574;10.040;2022-07-29T04:43:34;5.72;;;3.67;;
14665;SDS011;7420;53.574;10.040;2022-07-29T04:46:00;6.95;;;3.63;;
14665;SDS011;7420;53.574;10.040;2022-07-29T04:48:27;8.45;;;4.90;;
14665;SDS011;7420;53.574;10.040;2022-07-29T04:50:53;6.95;;;3.50;;
14665;SDS011;7420;53.574;10.040;2022-07-29T04:53:19;9.55;;;4.18;;
14665;SDS011;7420;53.574;10.040;2022-07-29T04:55:44;7.55;;;4.18;;
14665;SDS011;7420;53.574;10.040;2022-07-29T04:58:10;8.20;;;5.82;;
14665;SDS011;7420;53.574;10.040;2022-07-29T05:00:36;7.65;;;3.83;;
14665;SDS011;7420;53.574;10.040;2022-07-29T05:03:01;6.82;;;3.63;;
14665;SDS011;7420;53.574;10.040;2022-07-29T05:05:27;7.43;;;4.60;;
14665;SDS011;7420;53.574;10.040;2022-07-29T05:07:53;7.05;;;4.18;;
14665;SDS011;7420;53.574;10.040;2022-07-29T05:10:19;7.43;;;3.75;;
14665;SDS011;7420;53.574;10.040;2022-07-29T05:12:44;6.40;;;3.53;;
14665;SDS011;7420;53.574;10.040;2022-07-29T05:15:10;8.35;;;4.20;;
14665;SDS011;7420;53.574;10.040;2022-07-29T05:17:36;6.85;;;3.60;;
14665;SDS011;7420;53.574;10.040;2022-07-29T05:20:02;7.88;;;3.42;;
14665;SDS011;7420;53.574;10.040;2022-07-29T05:22:28;5.25;;;3.20;;
14665;SDS011;7420;53.574;10.040;2022-07-29T05:24:53;9.02;;;3.35;;
14665;SDS011;7420;53.574;10.040;2022-07-29T05:27:19;7.30;;;3.97;;
14665;SDS011;7420;53.574;10.040;2022-07-29T05:29:44;5.35;;;3.85;;
14665;SDS011;7420;53.574;10.040;2022-07-29T05:32:10;4.72;;;3.33;;
14665;SDS011;7420;53.574;10.040;2022-07-29T05:34:35;5.28;;;2.88;;
14665;SDS011;7420;53.574;10.040;2022-07-29T05:37:01;5.97;;;3.45;;
14665;SDS011;7420;53.574;10.040;2022-07-29T05:39:26;6.53;;;3.42;;
14665;SDS011;7420;53.574;10.040;2022-07-29T05:41:52;5.28;;;3.17;;
14665;SDS011;7420;53.574;10.040;2022-07-29T05:44:17;5.43;;;3.05;;
14665;SDS011;7420;53.574;10.040;2022-07-29T05:46:42;5.70;;;3.13;;
14665;SDS011;7420;53.574;10.040;2022-07-29T05:49:08;7.10;;;3.00;;
14665;SDS011;7420;53.574;10.040;2022-07-29T05:51:33;4.45;;;2.63;;
14665;SDS011;7420;53.574;10.040;2022-07-29T05:53:59;7.72;;;2.78;;
14665;SDS011;7420;53.574;10.040;2022-07-29T05:56:24;6.65;;;3.22;;
14665;SDS011;7420;53.574;10.040;2022-07-29T05:58:50;6.45;;;3.20;;
14665;SDS011;7420;53.574;10.040;2022-07-29T06:01:16;7.13;;;3.40;;
14665;SDS011;7420;53.574;10.040;2022-07-29T06:03:41;6.03;;;2.90;;
14665;SDS011;7420;53.574;10.040;2022-07-29T06:06:08;6.22;;;2.63;;
14665;SDS011;7420;53.574;10.040;2022-07-29T06:08:33;5.82;;;2.88;;
14665;SDS011;7420;53.574;10.040;2022-07-29T06:11:00;5.97;;;3.15;;
14665;SDS011;7420;53.574;10.040;2022-07-29T06:13:26;6.22;;;2.95;;
14665;SDS011;7420;53.574;10.040;2022-07-29T06:15:51;4.30;;;2.60;;
14665;SDS011;7420;53.574;10.040;2022-07-29T06:18:16;4.78;;;2.72;;
14665;SDS011;7420;53.574;10.040;2022-07-29T06:20:42;5.80;;;2.40;;
14665;SDS011;7420;53.574;10.040;2022-07-29T06:23:07;4.55;;;2.58;;
14665;SDS011;7420;53.574;10.040;2022-07-29T06:25:33;6.80;;;2.50;;
14665;SDS011;7420;53.574;10.040;2022-07-29T06:28:00;8.15;;;2.97;;
14665;SDS011;7420;53.574;10.040;2022-07-29T06:30:26;6.30;;;3.03;;
14665;SDS011;7420;53.574;10.040;2022-07-29T06:32:52;4.65;;;2.75;;
14665;SDS011;7420;53.574;10.040;2022-07-29T06:35:17;5.07;;;2.92;;
14665;SDS011;7420;53.574;10.040;2022-07-29T06:37:43;6.60;;;2.83;;
14665;SDS011;7420;53.574;10.040;2022-07-29T06:40:08;5.97;;;2.90;;
14665;SDS011;7420;53.574;10.040;2022-07-29T06:42:53;4.78;;;2.50;;
14665;SDS011;7420;53.574;10.040;2022-07-29T06:45:18;7.32;;;3.08;;
14665;SDS011;7420;53.574;10.040;2022-07-29T06:47:43;7.20;;;3.05;;
14665;SDS011;7420;53.574;10.040;2022-07-29T06:50:09;4.65;;;2.28;;
14665;SDS011;7420;53.574;10.040;2022-07-29T06:52:37;5.22;;;2.45;;
14665;SDS011;7420;53.574;10.040;2022-07-29T06:55:03;5.10;;;2.50;;
14665;SDS011;7420;53.574;10.040;2022-07-29T06:57:29;4.35;;;3.22;;
14665;SDS011;7420;53.574;10.040;2022-07-29T06:59:56;3.90;;;2.30;;
14665;SDS011;7420;53.574;10.040;2022-07-29T07:02:21;6.43;;;3.10;;
14665;SDS011;7420;53.574;10.040;2022-07-29T07:04:47;8.27;;;3.63;;
14665;SDS011;7420;53.574;10.040;2022-07-29T07:07:12;7.15;;;3.20;;
14665;SDS011;7420;53.574;10.040;2022-07-29T07:09:38;5.80;;;2.88;;
14665;SDS011;7420;53.574;10.040;2022-07-29T07:12:03;5.55;;;2.55;;
14665;SDS011;7420;53.574;10.040;2022-07-29T07:14:29;9.95;;;3.03;;
14665;SDS011;7420;53.574;10.040;2022-07-29T07:16:54;5.97;;;3.00;;
14665;SDS011;7420;53.574;10.040;2022-07-29T07:19:20;4.93;;;2.72;;
14665;SDS011;7420;53.574;10.040;2022-07-29T07:21:45;4.45;;;2.60;;
14665;SDS011;7420;53.574;10.040;2022-07-29T07:24:10;4.90;;;2.88;;
14665;SDS011;7420;53.574;10.040;2022-07-29T07:26:36;4.95;;;2.55;;
14665;SDS011;7420;53.574;10.040;2022-07-29T07:29:01;5.40;;;2.80;;
14665;SDS011;7420;53.574;10.040;2022-07-29T07:31:27;5.38;;;3.08;;
14665;SDS011;7420;53.574;10.040;2022-07-29T07:33:52;4.47;;;3.00;;
14665;SDS011;7420;53.574;10.040;2022-07-29T07:36:18;6.18;;;3.17;;
14665;SDS011;7420;53.574;10.040;2022-07-29T07:38:44;4.40;;;3.00;;
14665;SDS011;7420;53.574;10.040;2022-07-29T07:41:09;5.68;;;2.90;;
14665;SDS011;7420;53.574;10.040;2022-07-29T07:43:40;4.80;;;2.58;;
14665;SDS011;7420;53.574;10.040;2022-07-29T07:46:06;4.93;;;2.50;;
14665;SDS011;7420;53.574;10.040;2022-07-29T07:48:31;4.82;;;2.78;;
14665;SDS011;7420;53.574;10.040;2022-07-29T07:51:02;5.30;;;2.58;;
14665;SDS011;7420;53.574;10.040;2022-07-29T07:53:28;5.85;;;3.10;;
14665;SDS011;7420;53.574;10.040;2022-07-29T07:55:54;5.88;;;2.80;;
14665;SDS011;7420;53.574;10.040;2022-07-29T07:58:20;7.32;;;4.03;;
14665;SDS011;7420;53.574;10.040;2022-07-29T08:00:45;4.13;;;2.50;;
14665;SDS011;7420;53.574;10.040;2022-07-29T08:03:11;4.82;;;2.88;;
14665;SDS011;7420;53.574;10.040;2022-07-29T08:05:38;4.60;;;2.60;;
14665;SDS011;7420;53.574;10.040;2022-07-29T08:08:04;4.78;;;2.63;;
14665;SDS011;7420;53.574;10.040;2022-07-29T08:10:29;6.05;;;3.05;;
14665;SDS011;7420;53.574;10.040;2022-07-29T08:13:14;6.72;;;2.60;;
14665;SDS011;7420;53.574;10.040;2022-07-29T08:15:39;5.38;;;2.75;;
14665;SDS011;7420;53.574;10.040;2022-07-29T08:18:05;5.38;;;3.05;;
14665;SDS011;7420;53.574;10.040;2022-07-29T08:20:31;3.63;;;2.53;;
14665;SDS011;7420;53.574;10.040;2022-07-29T08:22:58;5.78;;;2.50;;
14665;SDS011;7420;53.574;10.040;2022-07-29T08:25:24;5.05;;;2.40;;
14665;SDS011;7420;53.574;10.040;2022-07-29T08:27:49;5.22;;;2.70;;
14665;SDS011;7420;53.574;10.040;2022-07-29T08:30:15;4.25;;;2.65;;
14665;SDS011;7420;53.574;10.040;2022-07-29T08:32:40;8.57;;;2.95;;
14665;SDS011;7420;53.574;10.040;2022-07-29T08:35:06;5.88;;;2.55;;
14665;SDS011;7420;53.574;10.040;2022-07-29T08:37:31;5.25;;;2.50;;
14665;SDS011;7420;53.574;10.040;2022-07-29T08:39:57;4.90;;;2.63;;
14665;SDS011;7420;53.574;10.040;2022-07-29T08:42:22;2.95;;;2.53;;
14665;SDS011;7420;53.574;10.040;2022-07-29T08:44:48;7.95;;;2.83;;
14665;SDS011;7420;53.574;10.040;2022-07-29T08:47:14;3.83;;;2.55;;
14665;SDS011;7420;53.574;10.040;2022-07-29T08:49:40;3.60;;;2.38;;
14665;SDS011;7420;53.574;10.040;2022-07-29T08:52:05;6.82;;;2.25;;
14665;SDS011;7420;53.574;10.040;2022-07-29T08:54:31;12.85;;;4.30;;
14665;SDS011;7420;53.574;10.040;2022-07-29T08:56:57;8.32;;;3.42;;
14665;SDS011;7420;53.574;10.040;2022-07-29T08:59:24;5.97;;;2.92;;
14665;SDS011;7420;53.574;10.040;2022-07-29T09:01:52;4.43;;;2.33;;
14665;SDS011;7420;53.574;10.040;2022-07-29T09:04:18;5.50;;;2.88;;
14665;SDS011;7420;53.574;10.040;2022-07-29T09:06:46;6.70;;;3.20;;
14665;SDS011;7420;53.574;10.040;2022-07-29T09:09:14;5.82;;;2.45;;
14665;SDS011;7420;53.574;10.040;2022-07-29T09:11:40;6.15;;;2.50;;
14665;SDS011;7420;53.574;10.040;2022-07-29T09:14:07;4.00;;;2.80;;
14665;SDS011;7420;53.574;10.040;2022-07-29T09:16:49;7.53;;;2.92;;
14665;SDS011;7420;53.574;10.040;2022-07-29T09:19:26;4.90;;;2.72;;
14665;SDS011;7420;53.574;10.040;2022-07-29T09:22:00;4.53;;;2.50;;
14665;SDS011;7420;53.574;10.040;2022-07-29T09:27:00;4.90;;;2.58;;
14665;SDS011;7420;53.574;10.040;2022-07-29T09:29:26;4.63;;;2.28;;
14665;SDS011;7420;53.574;10.040;2022-07-29T09:31:53;4.53;;;2.63;;
14665;SDS011;7420;53.574;10.040;2022-07-29T09:34:24;4.78;;;2.88;;
14665;SDS011;7420;53.574;10.040;2022-07-29T09:36:51;7.32;;;4.03;;
14665;SDS011;7420;53.574;10.040;2022-07-29T09:39:31;4.45;;;3.08;;
14665;SDS011;7420;53.574;10.040;2022-07-29T09:41:59;7.47;;;3.30;;
14665;SDS011;7420;53.574;10.040;2022-07-29T09:44:26;5.75;;;3.30;;
14665;SDS011;7420;53.574;10.040;2022-07-29T09:47:05;4.55;;;2.55;;
14665;SDS011;7420;53.574;10.040;2022-07-29T09:49:49;3.83;;;2.38;;
14665;SDS011;7420;53.574;10.040;2022-07-29T09:52:16;5.40;;;2.40;;
14665;SDS011;7420;53.574;10.040;2022-07-29T09:54:42;7.13;;;2.17;;
14665;SDS011;7420;53.574;10.040;2022-07-29T09:57:08;6.15;;;2.90;;
14665;SDS011;7420;53.574;10.040;2022-07-29T09:59:55;6.72;;;2.10;;
14665;SDS011;7420;53.574;10.040;2022-07-29T10:02:38;5.93;;;2.30;;
14665;SDS011;7420;53.574;10.040;2022-07-29T10:05:06;6.25;;;2.35;;
14665;SDS011;7420;53.574;10.040;2022-07-29T10:07:45;5.20;;;2.40;;
14665;SDS011;7420;53.574;10.040;2022-07-29T10:10:19;4.25;;;2.00;;
14665;SDS011;7420;53.574;10.040;2022-07-29T10:13:02;3.55;;;2.13;;
14665;SDS011;7420;53.574;10.040;2022-07-29T10:15:30;4.72;;;2.28;;
14665;SDS011;7420;53.574;10.040;2022-07-29T10:17:58;3.78;;;1.85;;
14665;SDS011;7420;53.574;10.040;2022-07-29T10:20:25;6.22;;;2.33;;
14665;SDS011;7420;53.574;10.040;2022-07-29T10:22:52;5.13;;;2.72;;
14665;SDS011;7420;53.574;10.040;2022-07-29T10:25:18;4.80;;;2.15;;
14665;SDS011;7420;53.574;10.040;2022-07-29T10:27:44;6.43;;;2.10;;
14665;SDS011;7420;53.574;10.040;2022-07-29T10:30:11;5.10;;;2.30;;
14665;SDS011;7420;53.574;10.040;2022-07-29T10:32:40;8.13;;;2.25;;
14665;SDS011;7420;53.574;10.040;2022-07-29T10:43:32;5.82;;;2.65;;
14665;SDS011;7420;53.574;10.040;2022-07-29T10:46:01;6.50;;;2.20;;
14665;SDS011;7420;53.574;10.040;2022-07-29T10:48:28;3.90;;;1.90;;
14665;SDS011;7420;53.574;10.040;2022-07-29T10:51:12;5.43;;;2.03;;
14665;SDS011;7420;53.574;10.040;2022-07-29T10:53:47;4.30;;;2.40;;
14665;SDS011;7420;53.574;10.040;2022-07-29T10:56:26;3.58;;;1.80;;
14665;SDS011;7420;53.574;10.040;2022-07-29T11:01:43;6.28;;;2.40;;
14665;SDS011;7420;53.574;10.040;2022-07-29T11:04:08;3.15;;;1.85;;
14665;SDS011;7420;53.574;10.040;2022-07-29T11:09:30;23.95;;;3.88;;
14665;SDS011;7420;53.574;10.040;2022-07-29T11:11:56;14.95;;;3.53;;
14665;SDS011;7420;53.574;10.040;2022-07-29T11:17:18;5.15;;;2.10;;
14665;SDS011;7420;53.574;10.040;2022-07-29T11:19:44;9.07;;;2.30;;
14665;SDS011;7420;53.574;10.040;2022-07-29T11:22:10;3.03;;;1.80;;
14665;SDS011;7420;53.574;10.040;2022-07-29T11:24:36;5.93;;;2.05;;
14665;SDS011;7420;53.574;10.040;2022-07-29T11:27:08;8.23;;;2.75;;
14665;SDS011;7420;53.574;10.040;2022-07-29T11:29:47;7.10;;;2.25;;
14665;SDS011;7420;53.574;10.040;2022-07-29T11:32:15;6.60;;;1.90;;
14665;SDS011;7420;53.574;10.040;2022-07-29T11:34:43;6.05;;;2.28;;
14665;SDS011;7420;53.574;10.040;2022-07-29T11:45:04;5.30;;;2.17;;
14665;SDS011;7420;53.574;10.040;2022-07-29T11:47:41;5.43;;;2.13;;
14665;SDS011;7420;53.574;10.040;2022-07-29T11:50:14;7.03;;;2.42;;
14665;SDS011;7420;53.574;10.040;2022-07-29T11:52:51;4.47;;;1.80;;
14665;SDS011;7420;53.574;10.040;2022-07-29T11:55:18;4.57;;;2.28;;
14665;SDS011;7420;53.574;10.040;2022-07-29T12:00:26;6.40;;;2.03;;
14665;SDS011;7420;53.574;10.040;2022-07-29T12:02:57;3.80;;;1.65;;
14665;SDS011;7420;53.574;10.040;2022-07-29T12:10:41;5.22;;;1.75;;
14665;SDS011;7420;53.574;10.040;2022-07-29T12:13:08;5.80;;;2.13;;
14665;SDS011;7420;53.574;10.040;2022-07-29T12:15:35;6.20;;;2.28;;
14665;SDS011;7420;53.574;10.040;2022-07-29T12:18:11;7.13;;;2.40;;
14665;SDS011;7420;53.574;10.040;2022-07-29T12:20:38;4.07;;;2.13;;
14665;SDS011;7420;53.574;10.040;2022-07-29T12:23:07;3.70;;;2.05;;
14665;SDS011;7420;53.574;10.040;2022-07-29T12:25:34;4.70;;;2.25;;
14665;SDS011;7420;53.574;10.040;2022-07-29T12:28:06;3.58;;;1.95;;
14665;SDS011;7420;53.574;10.040;2022-07-29T12:33:10;7.22;;;2.10;;
14665;SDS011;7420;53.574;10.040;2022-07-29T12:35:36;5.68;;;2.03;;
14665;SDS011;7420;53.574;10.040;2022-07-29T12:38:01;4.88;;;1.90;;
14665;SDS011;7420;53.574;10.040;2022-07-29T12:40:27;4.40;;;2.30;;
14665;SDS011;7420;53.574;10.040;2022-07-29T12:45:45;7.50;;;1.92;;
14665;SDS011;7420;53.574;10.040;2022-07-29T12:48:15;3.47;;;1.92;;
14665;SDS011;7420;53.574;10.040;2022-07-29T12:50:59;5.88;;;1.85;;
14665;SDS011;7420;53.574;10.040;2022-07-29T12:53:29;6.80;;;2.25;;
14665;SDS011;7420;53.574;10.040;2022-07-29T12:55:55;4.55;;;2.00;;
14665;SDS011;7420;53.574;10.040;2022-07-29T12:58:25;4.93;;;1.80;;
14665;SDS011;7420;53.574;10.040;2022-07-29T13:01:13;5.40;;;2.20;;
14665;SDS011;7420;53.574;10.040;2022-07-29T13:03:53;3.47;;;1.75;;
14665;SDS011;7420;53.574;10.040;2022-07-29T13:11:36;4.15;;;1.70;;
14665;SDS011;7420;53.574;10.040;2022-07-29T13:14:06;3.00;;;1.73;;
14665;SDS011;7420;53.574;10.040;2022-07-29T13:17:15;4.03;;;1.50;;
14665;SDS011;7420;53.574;10.040;2022-07-29T13:22:41;4.18;;;2.10;;
14665;SDS011;7420;53.574;10.040;2022-07-29T13:25:07;3.53;;;1.70;;
14665;SDS011;7420;53.574;10.040;2022-07-29T13:27:35;4.13;;;1.90;;
14665;SDS011;7420;53.574;10.040;2022-07-29T13:30:04;2.80;;;1.80;;
14665;SDS011;7420;53.574;10.040;2022-07-29T13:32:31;3.13;;;1.70;;
14665;SDS011;7420;53.574;10.040;2022-07-29T13:35:00;4.35;;;1.85;;
14665;SDS011;7420;53.574;10.040;2022-07-29T13:37:27;3.55;;;2.00;;
14665;SDS011;7420;53.574;10.040;2022-07-29T13:39:54;4.60;;;2.33;;
14665;SDS011;7420;53.574;10.040;2022-07-29T13:42:24;5.78;;;3.50;;
14665;SDS011;7420;53.574;10.040;2022-07-29T13:44:50;9.00;;;3.20;;
14665;SDS011;7420;53.574;10.040;2022-07-29T13:47:19;4.70;;;2.40;;
14665;SDS011;7420;53.574;10.040;2022-07-29T13:49:45;4.88;;;2.47;;
14665;SDS011;7420;53.574;10.040;2022-07-29T13:52:11;7.15;;;3.50;;
14665;SDS011;7420;53.574;10.040;2022-07-29T13:54:36;7.22;;;2.47;;
14665;SDS011;7420;53.574;10.040;2022-07-29T13:57:06;7.15;;;2.70;;
14665;SDS011;7420;53.574;10.040;2022-07-29T13:59:31;6.15;;;2.70;;
14665;SDS011;7420;53.574;10.040;2022-07-29T14:01:56;5.45;;;3.42;;
14665;SDS011;7420;53.574;10.040;2022-07-29T14:04:25;3.53;;;2.75;;
14665;SDS011;7420;53.574;10.040;2022-07-29T14:06:54;7.68;;;3.55;;
14665;SDS011;7420;53.574;10.040;2022-07-29T14:09:19;6.80;;;2.70;;
14665;SDS011;7420;53.574;10.040;2022-07-29T14:11:45;4.38;;;2.63;;
14665;SDS011;7420;53.574;10.040;2022-07-29T14:14:13;8.07;;;2.58;;
14665;SDS011;7420;53.574;10.040;2022-07-29T14:16:41;7.07;;;2.65;;
14665;SDS011;7420;53.574;10.040;2022-07-29T14:19:09;5.85;;;2.72;;
14665;SDS011;7420;53.574;10.040;2022-07-29T14:21:35;5.60;;;2.50;;
14665;SDS011;7420;53.574;10.040;2022-07-29T14:24:01;5.18;;;2.80;;
14665;SDS011;7420;53.574;10.040;2022-07-29T14:26:27;3.85;;;2.30;;
14665;SDS011;7420;53.574;10.040;2022-07-29T14:28:53;3.80;;;2.20;;
14665;SDS011;7420;53.574;10.040;2022-07-29T14:31:18;7.05;;;2.90;;
14665;SDS011;7420;53.574;10.040;2022-07-29T14:33:46;4.97;;;2.53;;
14665;SDS011;7420;53.574;10.040;2022-07-29T14:36:11;7.97;;;2.80;;
14665;SDS011;7420;53.574;10.040;2022-07-29T14:38:37;6.45;;;2.60;;
14665;SDS011;7420;53.574;10.040;2022-07-29T14:41:03;4.10;;;2.80;;
14665;SDS011;7420;53.574;10.040;2022-07-29T14:43:29;4.13;;;2.60;;
14665;SDS011;7420;53.574;10.040;2022-07-29T14:45:57;5.97;;;2.80;;
14665;SDS011;7420;53.574;10.040;2022-07-29T14:48:22;5.88;;;2.70;;
14665;SDS011;7420;53.574;10.040;2022-07-29T14:50:48;11.50;;;2.90;;
14665;SDS011;7420;53.574;10.040;2022-07-29T14:53:13;8.45;;;2.45;;
14665;SDS011;7420;53.574;10.040;2022-07-29T14:55:39;4.35;;;2.10;;
14665;SDS011;7420;53.574;10.040;2022-07-29T14:58:05;4.88;;;2.47;;
14665;SDS011;7420;53.574;10.040;2022-07-29T15:00:31;3.42;;;2.30;;
14665;SDS011;7420;53.574;10.040;2022-07-29T15:03:01;5.45;;;2.85;;
14665;SDS011;7420;53.574;10.040;2022-07-29T15:05:27;4.07;;;2.42;;
14665;SDS011;7420;53.574;10.040;2022-07-29T15:07:56;4.05;;;2.45;;
14665;SDS011;7420;53.574;10.040;2022-07-29T15:10:22;4.85;;;2.97;;
14665;SDS011;7420;53.574;10.040;2022-07-29T15:12:47;4.32;;;2.40;;
14665;SDS011;7420;53.574;10.040;2022-07-29T15:15:13;5.75;;;2.60;;
14665;SDS011;7420;53.574;10.040;2022-07-29T15:17:38;4.93;;;2.55;;
14665;SDS011;7420;53.574;10.040;2022-07-29T15:20:03;3.20;;;2.40;;
14665;SDS011;7420;53.574;10.040;2022-07-29T15:22:29;4.68;;;2.40;;
14665;SDS011;7420;53.574;10.040;2022-07-29T15:24:55;4.78;;;3.08;;
14665;SDS011;7420;53.574;10.040;2022-07-29T15:27:20;11.55;;;2.88;;
14665;SDS011;7420;53.574;10.040;2022-07-29T15:29:46;5.60;;;2.58;;
14665;SDS011;7420;53.574;10.040;2022-07-29T15:32:11;6.80;;;3.70;;
14665;SDS011;7420;53.574;10.040;2022-07-29T15:34:37;7.50;;;2.95;;
14665;SDS011;7420;53.574;10.040;2022-07-29T15:37:03;6.75;;;2.80;;
14665;SDS011;7420;53.574;10.040;2022-07-29T15:39:29;5.15;;;2.70;;
14665;SDS011;7420;53.574;10.040;2022-07-29T15:41:55;5.05;;;2.50;;
14665;SDS011;7420;53.574;10.040;2022-07-29T15:44:20;5.35;;;2.25;;
14665;SDS011;7420;53.574;10.040;2022-07-29T15:46:46;11.65;;;2.30;;
14665;SDS011;7420;53.574;10.040;2022-07-29T15:49:31;7.47;;;3.50;;
14665;SDS011;7420;53.574;10.040;2022-07-29T15:51:59;4.63;;;2.70;;
14665;SDS011;7420;53.574;10.040;2022-07-29T15:54:28;6.93;;;3.33;;
14665;SDS011;7420;53.574;10.040;2022-07-29T15:56:54;4.47;;;2.58;;
14665;SDS011;7420;53.574;10.040;2022-07-29T15:59:20;6.95;;;2.63;;
14665;SDS011;7420;53.574;10.040;2022-07-29T16:01:46;6.53;;;2.60;;